| time (UTC) | temp F | wind direction | speed MPH | gust MPH | rain 1hr in | rain 24hr in | rain mn in | humidity % | barometer mb |
| 20260904034404 | 62 | 305 | 21.0 | 28.0 | 0.02 | 0.09 | 0.06 | 90 | 1009.8 |
| 20260904031905 | 62 | 310 | 23.0 | 26.0 | 0.01 | 0.08 | 0.05 | 88 | 1009.3 |
| 20260904030904 | 62 | 308 | 26.0 | 33.0 | 0.01 | 0.08 | 0.05 | 87 | 1009.4 |
| 20260904025904 | 62 | 307 | 25.0 | 35.0 | 0.00 | 0.07 | 0.04 | 86 | 1009.6 |
| 20260904024905 | 63 | 302 | 20.0 | 35.0 | 0.00 | 0.07 | 0.04 | 86 | 1009.8 |
| 20260904023405 | 62 | 308 | 20.0 | 25.0 | 0.00 | 0.07 | 0.04 | 87 | 1009.9 |
| 20260904021905 | 62 | 299 | 18.0 | 25.0 | 0.00 | 0.07 | 0.04 | 87 | 1010.1 |
| 20260904015404 | 62 | 303 | 20.0 | 29.0 | 0.01 | 0.07 | 0.04 | 87 | 1010.4 |
| 20260904014405 | 62 | 300 | 22.0 | 26.0 | 0.01 | 0.07 | 0.04 | 88 | 1010.4 |
| 20260904013404 | 61 | 294 | 21.0 | 28.0 | 0.02 | 0.07 | 0.04 | 88 | 1010.8 |
| 20260904011905 | 61 | 311 | 20.0 | 26.0 | 0.04 | 0.07 | 0.04 | 89 | 1011.0 |
| 20260904005904 | 61 | 314 | 14.0 | 20.0 | 0.03 | 0.06 | 0.03 | 88 | 1011.4 |
| 20260904004404 | 61 | 317 | 17.0 | 21.0 | 0.03 | 0.06 | 0.03 | 88 | 1011.8 |
| 20260904003905 | 60 | 311 | 17.0 | 22.0 | 0.03 | 0.06 | 0.03 | 88 | 1012.1 |
| 20260904002905 | 60 | 303 | 16.0 | 21.0 | 0.02 | 0.05 | 0.02 | 87 | 1012.4 |
| 20260904002405 | 60 | 295 | 18.0 | 28.0 | 0.01 | 0.04 | 0.01 | 86 | 1012.7 |
| 20260904001905 | 61 | 304 | 22.0 | 29.0 | 0.00 | 0.03 | 0.00 | 85 | 1012.7 |
| 20260904001405 | 61 | 306 | 18.0 | 22.0 | 0.00 | 0.03 | 0.00 | 85 | 1012.6 |
| 20260904000404 | 61 | 305 | 21.0 | 29.0 | 0.00 | 0.03 | 0.00 | 84 | 1012.7 |
| 20260903235404 | 61 | 302 | 23.0 | 30.0 | 0.00 | 0.03 | 0.00 | 84 | 1012.8 |
| 20260903233904 | 61 | 297 | 26.0 | 33.0 | 0.00 | 0.03 | 0.00 | 83 | 1012.8 |
| 20260903233404 | 61 | 304 | 24.0 | 35.0 | 0.00 | 0.03 | 0.00 | 83 | 1012.8 |
| 20260903232404 | 62 | 303 | 21.0 | 29.0 | 0.00 | 0.03 | 0.00 | 82 | 1012.9 |
| 20260903231905 | 62 | 302 | 22.0 | 33.0 | 0.00 | 0.03 | 0.00 | 81 | 1013.0 |
| 20260903231404 | 62 | 310 | 24.0 | 30.0 | 0.00 | 0.03 | 0.00 | 81 | 1013.0 |
| 20260903230904 | 62 | 299 | 25.0 | 32.0 | 0.00 | 0.03 | 0.00 | 80 | 1013.1 |
| 20260903230404 | 62 | 297 | 23.0 | 30.0 | 0.00 | 0.03 | 0.00 | 82 | 1013.0 |
| 20260903224905 | 61 | 306 | 18.0 | 23.0 | 0.00 | 0.03 | 0.00 | 82 | 1013.2 |
| 20260903223904 | 62 | 308 | 19.0 | 24.0 | 0.00 | 0.03 | 0.00 | 81 | 1013.4 |
| 20260903223404 | 63 | 298 | 17.0 | 25.0 | 0.00 | 0.03 | 0.00 | 81 | 1013.3 |
| 20260903222404 | 62 | 310 | 19.0 | 29.0 | 0.00 | 0.03 | 0.00 | 79 | 1013.3 |
| 20260903221404 | 62 | 307 | 18.0 | 30.0 | 0.00 | 0.03 | 0.00 | 80 | 1013.5 |
| 20260903220905 | 62 | 313 | 22.0 | 28.0 | 0.00 | 0.03 | 0.00 | 80 | 1013.6 |
| 20260903220404 | 62 | 305 | 22.0 | 30.0 | 0.00 | 0.03 | 0.00 | 79 | 1013.7 |
| 20260903215904 | 62 | 311 | 24.0 | 28.0 | 0.00 | 0.03 | 0.00 | 79 | 1013.7 |
| 20260903214404 | 63 | 311 | 18.0 | 26.0 | 0.00 | 0.03 | 0.00 | 80 | 1013.6 |
| 20260903213904 | 62 | 315 | 22.0 | 28.0 | 0.00 | 0.03 | 0.00 | 80 | 1013.6 |
| 20260903213404 | 62 | 307 | 17.0 | 23.0 | 0.00 | 0.03 | 0.00 | 81 | 1013.7 |
| 20260903211904 | 62 | 315 | 19.0 | 23.0 | 0.00 | 0.03 | 0.00 | 81 | 1013.8 |
| 20260903210404 | 62 | 317 | 17.0 | 23.0 | 0.00 | 0.03 | 0.00 | 81 | 1014.0 |
| 20260903204405 | 60 | 320 | 15.0 | 20.0 | 0.00 | 0.03 | 0.00 | 82 | 1014.6 |
| 20260903203904 | 60 | 317 | 14.0 | 20.0 | 0.00 | 0.03 | 0.00 | 82 | 1014.7 |
| 20260903203404 | 60 | 310 | 13.0 | 17.0 | 0.00 | 0.03 | 0.00 | 82 | 1014.8 |
| 20260903202904 | 61 | 299 | 12.0 | 17.0 | 0.00 | 0.03 | 0.00 | 82 | 1014.7 |
| 20260903202404 | 61 | 323 | 13.0 | 16.0 | 0.00 | 0.03 | 0.00 | 83 | 1014.8 |
| 20260903201904 | 61 | 312 | 12.0 | 15.0 | 0.00 | 0.03 | 0.00 | 84 | 1014.9 |
| 20260903201404 | 60 | 326 | 13.0 | 16.0 | 0.00 | 0.03 | 0.00 | 84 | 1014.8 |
| 20260903200905 | 60 | 332 | 14.0 | 18.0 | 0.00 | 0.03 | 0.00 | 83 | 1014.8 |
| 20260903200405 | 60 | 316 | 15.0 | 20.0 | 0.00 | 0.03 | 0.00 | 83 | 1014.8 |
| 20260903193905 | 58 | 317 | 13.0 | 20.0 | 0.00 | 0.03 | 0.00 | 85 | 1014.7 |
| 20260903191906 | 57 | 324 | 12.0 | 15.0 | 0.00 | 0.03 | 0.00 | 86 | 1014.8 |
| 20260903191406 | 57 | 318 | 14.0 | 18.0 | 0.00 | 0.03 | 0.00 | 86 | 1014.9 |
| 20260903190405 | 57 | 326 | 13.0 | 18.0 | 0.00 | 0.03 | 0.00 | 87 | 1014.8 |
| 20260903185905 | 57 | 323 | 12.0 | 17.0 | 0.00 | 0.03 | 0.00 | 86 | 1014.8 |
| 20260903185406 | 57 | 311 | 14.0 | 20.0 | 0.00 | 0.03 | 0.00 | 87 | 1014.9 |
| 20260903184905 | 57 | 314 | 14.0 | 18.0 | 0.00 | 0.03 | 0.00 | 87 | 1014.9 |
| 20260903182905 | 56 | 305 | 13.0 | 21.0 | 0.00 | 0.03 | 0.00 | 87 | 1015.1 |
| 20260903181405 | 57 | 302 | 12.0 | 16.0 | 0.00 | 0.03 | 0.00 | 87 | 1015.0 |
| 20260903180905 | 57 | 307 | 14.0 | 18.0 | 0.00 | 0.03 | 0.00 | 88 | 1015.0 |
| 20260903175405 | 57 | 302 | 14.0 | 18.0 | 0.00 | 0.03 | 0.00 | 88 | 1015.0 |
| 20260903173905 | 57 | 299 | 14.0 | 20.0 | 0.00 | 0.03 | 0.00 | 87 | 1015.0 |
| 20260903173405 | 57 | 304 | 13.0 | 17.0 | 0.00 | 0.03 | 0.00 | 87 | 1015.0 |
| 20260903172405 | 57 | 295 | 12.0 | 15.0 | 0.00 | 0.03 | 0.00 | 87 | 1015.1 |
| 20260903171905 | 57 | 293 | 14.0 | 20.0 | 0.00 | 0.03 | 0.00 | 87 | 1015.2 |
| 20260903165906 | 56 | 295 | 15.0 | 20.0 | 0.00 | 0.03 | 0.00 | 88 | 1015.3 |
| 20260903165405 | 56 | 304 | 12.0 | 15.0 | 0.00 | 0.03 | 0.00 | 87 | 1015.2 |
| 20260903164405 | 56 | 308 | 14.0 | 20.0 | 0.00 | 0.03 | 0.00 | 88 | 1015.2 |
| 20260903162405 | 57 | 301 | 14.0 | 20.0 | 0.00 | 0.03 | 0.00 | 88 | 1015.1 |
| 20260903161405 | 57 | 297 | 12.0 | 17.0 | 0.00 | 0.03 | 0.00 | 88 | 1015.2 |
| 20260903160906 | 57 | 306 | 10.0 | 14.0 | 0.00 | 0.03 | 0.00 | 88 | 1015.3 |
| 20260903160405 | 57 | 294 | 13.0 | 18.0 | 0.00 | 0.03 | 0.00 | 89 | 1015.4 |
| 20260903155905 | 57 | 305 | 11.0 | 17.0 | 0.00 | 0.03 | 0.00 | 89 | 1015.4 |
| 20260903155405 | 57 | 309 | 11.0 | 16.0 | 0.00 | 0.03 | 0.00 | 89 | 1015.5 |
| 20260903154905 | 57 | 301 | 12.0 | 14.0 | 0.00 | 0.03 | 0.00 | 89 | 1015.5 |
| 20260903154404 | 57 | 311 | 12.0 | 15.0 | 0.00 | 0.03 | 0.00 | 89 | 1015.5 |
| 20260903153905 | 57 | 308 | 10.0 | 13.0 | 0.00 | 0.03 | 0.00 | 89 | 1015.4 |
| 20260903152905 | 57 | 308 | 11.0 | 13.0 | 0.00 | 0.03 | 0.00 | 89 | 1015.4 |
| 20260903151405 | 58 | 313 | 12.0 | 13.0 | 0.00 | 0.03 | 0.00 | 89 | 1015.5 |
| 20260903150406 | 58 | 309 | 12.0 | 15.0 | 0.00 | 0.03 | 0.00 | 89 | 1015.6 |
| 20260903144905 | 58 | 310 | 13.0 | 17.0 | 0.00 | 0.03 | 0.00 | 89 | 1015.7 |
| 20260903144405 | 58 | 322 | 12.0 | 16.0 | 0.00 | 0.03 | 0.00 | 89 | 1015.7 |
| 20260903143405 | 58 | 310 | 13.0 | 17.0 | 0.00 | 0.03 | 0.00 | 90 | 1015.9 |
| 20260903142405 | 58 | 315 | 12.0 | 16.0 | 0.00 | 0.03 | 0.00 | 90 | 1016.0 |
| 20260903141905 | 58 | 312 | 12.0 | 16.0 | 0.00 | 0.03 | 0.00 | 90 | 1016.1 |
| 20260903141405 | 58 | 312 | 14.0 | 18.0 | 0.00 | 0.03 | 0.00 | 90 | 1016.1 |
| 20260903140905 | 58 | 305 | 12.0 | 14.0 | 0.00 | 0.03 | 0.00 | 89 | 1016.2 |
| 20260903135905 | 58 | 305 | 14.0 | 18.0 | 0.00 | 0.03 | 0.00 | 89 | 1016.1 |
| 20260903135405 | 58 | 304 | 12.0 | 15.0 | 0.00 | 0.03 | 0.00 | 89 | 1016.2 |
| 20260903134405 | 59 | 303 | 10.0 | 15.0 | 0.00 | 0.03 | 0.00 | 89 | 1016.3 |
| 20260903133905 | 59 | 302 | 13.0 | 20.0 | 0.00 | 0.03 | 0.00 | 89 | 1016.3 |
| 20260903133406 | 59 | 308 | 14.0 | 22.0 | 0.00 | 0.03 | 0.00 | 89 | 1016.3 |
| 20260903131905 | 59 | 291 | 15.0 | 20.0 | 0.00 | 0.03 | 0.00 | 89 | 1016.3 |
| 20260903131405 | 59 | 300 | 17.0 | 22.0 | 0.00 | 0.03 | 0.00 | 89 | 1016.2 |
| 20260903124905 | 59 | 299 | 12.0 | 16.0 | 0.00 | 0.03 | 0.00 | 90 | 1016.3 |
| 20260903124405 | 59 | 302 | 12.0 | 16.0 | 0.00 | 0.03 | 0.00 | 89 | 1016.3 |
| 20260903121904 | 59 | 287 | 13.0 | 17.0 | 0.00 | 0.03 | 0.00 | 90 | 1016.1 |
| 20260903121406 | 59 | 294 | 12.0 | 15.0 | 0.00 | 0.03 | 0.00 | 90 | 1016.2 |
| 20260903120909 | 59 | 290 | 12.0 | 14.0 | 0.00 | 0.03 | 0.00 | 89 | 1016.2 |
| 20260903115405 | 59 | 296 | 13.0 | 17.0 | 0.00 | 0.03 | 0.03 | 90 | 1016.3 |
| 20260903114905 | 59 | 291 | 13.0 | 18.0 | 0.00 | 0.03 | 0.03 | 90 | 1016.3 |
| 20260903113905 | 59 | 289 | 10.0 | 15.0 | 0.00 | 0.03 | 0.03 | 91 | 1016.4 |
| 20260903112905 | 59 | 298 | 12.0 | 16.0 | 0.00 | 0.03 | 0.03 | 91 | 1016.5 |
| 20260903112405 | 59 | 296 | 10.0 | 16.0 | 0.00 | 0.03 | 0.03 | 91 | 1016.5 |
| 20260903110905 | 59 | 298 | 12.0 | 16.0 | 0.00 | 0.03 | 0.03 | 92 | 1016.6 |
| 20260903110404 | 59 | 303 | 12.0 | 15.0 | 0.00 | 0.03 | 0.03 | 91 | 1016.6 |
| 20260903105905 | 59 | 295 | 10.0 | 16.0 | 0.00 | 0.03 | 0.03 | 91 | 1016.7 |
| 20260903104905 | 58 | 300 | 10.0 | 12.0 | 0.00 | 0.03 | 0.03 | 91 | 1016.7 |
| 20260903103405 | 58 | 307 | 8.0 | 12.0 | 0.00 | 0.03 | 0.03 | 92 | 1016.8 |
| 20260903101405 | 58 | 325 | 8.0 | 12.0 | 0.00 | 0.03 | 0.03 | 92 | 1017.0 |
| 20260903100905 | 58 | 322 | 7.0 | 12.0 | 0.00 | 0.03 | 0.03 | 92 | 1017.1 |
| 20260903100404 | 58 | 311 | 8.0 | 10.0 | 0.01 | 0.03 | 0.03 | 92 | 1017.1 |
| 20260903095905 | 58 | 313 | 7.0 | 13.0 | 0.01 | 0.03 | 0.03 | 92 | 1017.1 |
| 20260903095405 | 58 | 317 | 7.0 | 12.0 | 0.01 | 0.03 | 0.03 | 92 | 1017.1 |
| 20260903094905 | 58 | 318 | 6.0 | 10.0 | 0.01 | 0.03 | 0.03 | 92 | 1017.1 |
| 20260903094405 | 58 | 323 | 7.0 | 10.0 | 0.01 | 0.03 | 0.03 | 92 | 1017.2 |
| 20260903093405 | 58 | 309 | 10.0 | 12.0 | 0.01 | 0.03 | 0.03 | 92 | 1017.1 |
| 20260903092904 | 58 | 317 | 10.0 | 12.0 | 0.01 | 0.03 | 0.03 | 92 | 1017.1 |
| 20260903092405 | 58 | 311 | 9.0 | 12.0 | 0.01 | 0.03 | 0.03 | 92 | 1017.1 |
| 20260903085905 | 58 | 315 | 10.0 | 13.0 | 0.00 | 0.02 | 0.02 | 92 | 1016.8 |
| 20260903084905 | 57 | 314 | 10.0 | 12.0 | 0.00 | 0.02 | 0.02 | 92 | 1016.7 |
| 20260903083904 | 56 | 314 | 6.0 | 10.0 | 0.00 | 0.02 | 0.02 | 92 | 1016.7 |
| 20260903082420 | 57 | 335 | 5.0 | 6.0 | 0.00 | 0.02 | 0.02 | 91 | 1016.8 |
| 20260903081405 | 57 | 334 | 6.0 | 12.0 | 0.00 | 0.02 | 0.02 | 92 | 1016.8 |
| 20260903080905 | 57 | 326 | 7.0 | 12.0 | 0.01 | 0.02 | 0.02 | 92 | 1016.8 |
| 20260903080405 | 57 | 322 | 10.0 | 13.0 | 0.01 | 0.02 | 0.02 | 91 | 1016.8 |
| 20260903075905 | 57 | 328 | 7.0 | 10.0 | 0.01 | 0.02 | 0.02 | 91 | 1016.7 |
| 20260903074405 | 57 | 314 | 10.0 | 14.0 | 0.01 | 0.02 | 0.02 | 91 | 1016.7 |
| 20260903073904 | 57 | 312 | 10.0 | 12.0 | 0.01 | 0.02 | 0.02 | 91 | 1016.7 |
| 20260903073404 | 57 | 323 | 9.0 | 12.0 | 0.01 | 0.02 | 0.02 | 91 | 1016.7 |
| 20260903071405 | 57 | 316 | 6.0 | 10.0 | 0.01 | 0.02 | 0.02 | 91 | 1016.7 |
| 20260903063905 | 57 | 314 | 10.0 | 15.0 | 0.00 | 0.02 | 0.02 | 91 | 1016.6 |
| 20260903063404 | 57 | 306 | 8.0 | 12.0 | 0.00 | 0.02 | 0.02 | 91 | 1016.6 |
| 20260903062904 | 57 | 320 | 9.0 | 13.0 | 0.00 | 0.02 | 0.02 | 91 | 1016.6 |
| 20260903061904 | 57 | 330 | 10.0 | 13.0 | 0.00 | 0.02 | 0.02 | 91 | 1016.5 |
| 20260903061404 | 56 | 327 | 8.0 | 9.0 | 0.00 | 0.02 | 0.02 | 91 | 1016.5 |
| 20260903060905 | 56 | 325 | 7.0 | 10.0 | 0.00 | 0.02 | 0.02 | 91 | 1016.5 |
| 20260903060405 | 56 | 344 | 6.0 | 9.0 | 0.00 | 0.02 | 0.02 | 90 | 1016.5 |
| 20260903054405 | 56 | 16 | 6.0 | 6.0 | 0.00 | 0.02 | 0.02 | 90 | 1016.8 |
| 20260903053905 | 56 | 29 | 4.0 | 6.0 | 0.00 | 0.02 | 0.02 | 90 | 1016.8 |
| 20260903053404 | 56 | 29 | 3.0 | 5.0 | 0.01 | 0.02 | 0.02 | 90 | 1016.9 |
| 20260903052905 | 56 | 28 | 4.0 | 5.0 | 0.01 | 0.02 | 0.02 | 90 | 1016.8 |
| 20260903052404 | 56 | 5 | 3.0 | 5.0 | 0.02 | 0.02 | 0.02 | 89 | 1016.8 |
| 20260903051404 | 56 | 5 | 3.0 | 3.0 | 0.02 | 0.02 | 0.02 | 89 | 1016.8 |
| 20260903050405 | 56 | 5 | 3.0 | 5.0 | 0.02 | 0.02 | 0.02 | 89 | 1016.8 |
| 20260903045904 | 56 | 355 | 4.0 | 5.0 | 0.02 | 0.02 | 0.02 | 88 | 1016.8 |
| 20260903045405 | 56 | 356 | 6.0 | 9.0 | 0.02 | 0.02 | 0.02 | 88 | 1016.9 |
| 20260903044904 | 56 | 344 | 6.0 | 6.0 | 0.02 | 0.02 | 0.02 | 87 | 1017.0 |
| 20260903043905 | 57 | 312 | 9.0 | 12.0 | 0.02 | 0.02 | 0.02 | 86 | 1017.2 |
| 20260903043404 | 57 | 311 | 10.0 | 14.0 | 0.01 | 0.01 | 0.01 | 84 | 1017.3 |
| 20260903042906 | 58 | 299 | 14.0 | 21.0 | 0.01 | 0.01 | 0.01 | 82 | 1017.3 |
| 20260903042405 | 58 | 297 | 10.0 | 16.0 | 0.00 | 0.00 | 0.00 | 80 | 1017.3 |
| 20260903040905 | 60 | 299 | 12.0 | 14.0 | 0.00 | 0.00 | 0.00 | 76 | 1017.3 |
| 20260903040405 | 60 | 311 | 9.0 | 13.0 | 0.00 | 0.00 | 0.00 | 75 | 1017.2 |
| 20260903034904 | 60 | 301 | 10.0 | 17.0 | 0.00 | 0.00 | 0.00 | 74 | 1017.3 |